sensor_id;sensor_type;location;lat;lon;timestamp;temperature;humidity
63313;DHT22;49442;45.640;13.812;2022-11-09T00:01:19;13.30;99.90
63313;DHT22;49442;45.640;13.812;2022-11-09T00:03:44;13.20;99.90
63313;DHT22;49442;45.640;13.812;2022-11-09T00:06:10;13.20;99.90
63313;DHT22;49442;45.640;13.812;2022-11-09T00:08:36;13.20;99.90
63313;DHT22;49442;45.640;13.812;2022-11-09T00:11:06;13.20;99.90
63313;DHT22;49442;45.640;13.812;2022-11-09T00:13:39;13.20;99.90
63313;DHT22;49442;45.640;13.812;2022-11-09T00:16:06;13.30;99.90
63313;DHT22;49442;45.640;13.812;2022-11-09T00:18:33;13.30;99.90
63313;DHT22;49442;45.640;13.812;2022-11-09T00:20:58;13.50;99.90
63313;DHT22;49442;45.640;13.812;2022-11-09T00:23:29;13.50;99.90
63313;DHT22;49442;45.640;13.812;2022-11-09T00:25:58;13.50;99.90
63313;DHT22;49442;45.640;13.812;2022-11-09T00:28:24;13.50;99.90
63313;DHT22;49442;45.640;13.812;2022-11-09T00:30:49;13.50;99.90
63313;DHT22;49442;45.640;13.812;2022-11-09T00:33:15;13.50;99.90
63313;DHT22;49442;45.640;13.812;2022-11-09T00:35:40;13.60;99.90
63313;DHT22;49442;45.640;13.812;2022-11-09T00:38:06;13.60;99.90
63313;DHT22;49442;45.640;13.812;2022-11-09T00:40:31;13.70;99.90
63313;DHT22;49442;45.640;13.812;2022-11-09T00:42:57;13.80;99.90
63313;DHT22;49442;45.640;13.812;2022-11-09T00:45:22;13.80;99.90
63313;DHT22;49442;45.640;13.812;2022-11-09T00:47:48;13.80;99.90
63313;DHT22;49442;45.640;13.812;2022-11-09T00:50:17;13.80;99.90
63313;DHT22;49442;45.640;13.812;2022-11-09T00:52:42;13.80;99.90
63313;DHT22;49442;45.640;13.812;2022-11-09T00:55:08;13.80;99.90
63313;DHT22;49442;45.640;13.812;2022-11-09T00:57:34;13.80;99.90
63313;DHT22;49442;45.640;13.812;2022-11-09T01:00:00;13.90;99.90
63313;DHT22;49442;45.640;13.812;2022-11-09T01:02:25;13.90;99.90
63313;DHT22;49442;45.640;13.812;2022-11-09T01:04:51;13.90;99.90
63313;DHT22;49442;45.640;13.812;2022-11-09T01:07:16;14.00;99.90
63313;DHT22;49442;45.640;13.812;2022-11-09T01:09:42;14.00;99.90
63313;DHT22;49442;45.640;13.812;2022-11-09T01:12:08;14.10;99.90
63313;DHT22;49442;45.640;13.812;2022-11-09T01:14:33;14.20;99.90
63313;DHT22;49442;45.640;13.812;2022-11-09T01:16:59;14.20;99.90
63313;DHT22;49442;45.640;13.812;2022-11-09T01:19:24;14.10;99.90
63313;DHT22;49442;45.640;13.812;2022-11-09T01:21:50;14.10;99.90
63313;DHT22;49442;45.640;13.812;2022-11-09T01:24:16;14.10;99.90
63313;DHT22;49442;45.640;13.812;2022-11-09T01:26:41;14.00;99.90
63313;DHT22;49442;45.640;13.812;2022-11-09T01:29:07;14.00;99.90
63313;DHT22;49442;45.640;13.812;2022-11-09T01:31:32;13.90;99.90
63313;DHT22;49442;45.640;13.812;2022-11-09T01:33:58;13.80;99.90
63313;DHT22;49442;45.640;13.812;2022-11-09T01:36:23;13.90;99.90
63313;DHT22;49442;45.640;13.812;2022-11-09T01:38:49;13.90;99.90
63313;DHT22;49442;45.640;13.812;2022-11-09T01:41:17;13.80;99.90
63313;DHT22;49442;45.640;13.812;2022-11-09T01:43:43;13.80;99.90
63313;DHT22;49442;45.640;13.812;2022-11-09T01:46:22;13.80;99.90
63313;DHT22;49442;45.640;13.812;2022-11-09T01:51:18;13.90;99.90
63313;DHT22;49442;45.640;13.812;2022-11-09T01:53:46;13.90;99.90
63313;DHT22;49442;45.640;13.812;2022-11-09T01:56:14;13.90;99.90
63313;DHT22;49442;45.640;13.812;2022-11-09T01:58:41;13.90;99.90
63313;DHT22;49442;45.640;13.812;2022-11-09T02:01:08;14.00;99.90
63313;DHT22;49442;45.640;13.812;2022-11-09T02:03:49;14.00;99.90
63313;DHT22;49442;45.640;13.812;2022-11-09T02:06:17;14.10;99.90
63313;DHT22;49442;45.640;13.812;2022-11-09T02:08:43;14.00;99.90
63313;DHT22;49442;45.640;13.812;2022-11-09T02:11:11;14.10;99.90
63313;DHT22;49442;45.640;13.812;2022-11-09T02:13:37;14.10;99.90
63313;DHT22;49442;45.640;13.812;2022-11-09T02:16:04;14.10;99.90
63313;DHT22;49442;45.640;13.812;2022-11-09T02:18:30;14.10;99.90
63313;DHT22;49442;45.640;13.812;2022-11-09T02:20:56;14.10;99.90
63313;DHT22;49442;45.640;13.812;2022-11-09T02:23:22;14.10;99.90
63313;DHT22;49442;45.640;13.812;2022-11-09T02:25:53;14.10;99.90
63313;DHT22;49442;45.640;13.812;2022-11-09T02:28:19;14.20;99.90
63313;DHT22;49442;45.640;13.812;2022-11-09T02:30:48;14.20;99.90
63313;DHT22;49442;45.640;13.812;2022-11-09T02:33:14;14.20;99.90
63313;DHT22;49442;45.640;13.812;2022-11-09T02:35:40;14.20;99.90
63313;DHT22;49442;45.640;13.812;2022-11-09T02:38:08;14.20;99.90
63313;DHT22;49442;45.640;13.812;2022-11-09T02:40:34;14.20;99.90
63313;DHT22;49442;45.640;13.812;2022-11-09T02:43:02;14.10;99.90
63313;DHT22;49442;45.640;13.812;2022-11-09T02:45:27;14.20;99.90
63313;DHT22;49442;45.640;13.812;2022-11-09T02:47:56;14.20;99.90
63313;DHT22;49442;45.640;13.812;2022-11-09T02:50:21;14.30;99.90
63313;DHT22;49442;45.640;13.812;2022-11-09T02:52:47;14.30;99.90
63313;DHT22;49442;45.640;13.812;2022-11-09T02:55:12;14.30;99.90
63313;DHT22;49442;45.640;13.812;2022-11-09T02:57:38;14.30;99.90
63313;DHT22;49442;45.640;13.812;2022-11-09T03:00:04;14.30;99.90
63313;DHT22;49442;45.640;13.812;2022-11-09T03:02:30;14.30;99.90
63313;DHT22;49442;45.640;13.812;2022-11-09T03:04:56;14.30;99.90
63313;DHT22;49442;45.640;13.812;2022-11-09T03:07:21;14.30;99.90
63313;DHT22;49442;45.640;13.812;2022-11-09T03:09:47;14.30;99.90
63313;DHT22;49442;45.640;13.812;2022-11-09T03:12:12;14.30;99.90
63313;DHT22;49442;45.640;13.812;2022-11-09T03:14:53;14.30;99.90
63313;DHT22;49442;45.640;13.812;2022-11-09T03:17:19;14.30;99.90
63313;DHT22;49442;45.640;13.812;2022-11-09T03:19:44;14.30;99.90
63313;DHT22;49442;45.640;13.812;2022-11-09T03:22:10;14.20;99.90
63313;DHT22;49442;45.640;13.812;2022-11-09T03:24:35;14.20;99.90
63313;DHT22;49442;45.640;13.812;2022-11-09T03:27:01;14.30;99.90
63313;DHT22;49442;45.640;13.812;2022-11-09T03:29:26;14.30;99.90
63313;DHT22;49442;45.640;13.812;2022-11-09T03:31:52;14.30;99.90
63313;DHT22;49442;45.640;13.812;2022-11-09T03:34:20;14.30;99.90
63313;DHT22;49442;45.640;13.812;2022-11-09T03:36:46;14.30;99.90
63313;DHT22;49442;45.640;13.812;2022-11-09T03:39:12;14.30;99.90
63313;DHT22;49442;45.640;13.812;2022-11-09T03:41:37;14.20;99.90
63313;DHT22;49442;45.640;13.812;2022-11-09T03:44:03;14.10;99.90
63313;DHT22;49442;45.640;13.812;2022-11-09T03:46:28;14.10;99.90
63313;DHT22;49442;45.640;13.812;2022-11-09T03:48:54;14.10;99.90
63313;DHT22;49442;45.640;13.812;2022-11-09T03:51:19;14.10;99.90
63313;DHT22;49442;45.640;13.812;2022-11-09T03:53:45;14.10;99.90
63313;DHT22;49442;45.640;13.812;2022-11-09T03:56:10;14.10;99.90
63313;DHT22;49442;45.640;13.812;2022-11-09T03:58:36;14.00;99.90
63313;DHT22;49442;45.640;13.812;2022-11-09T04:01:01;14.00;99.90
63313;DHT22;49442;45.640;13.812;2022-11-09T04:03:27;14.00;99.90
63313;DHT22;49442;45.640;13.812;2022-11-09T04:05:53;14.10;99.90
63313;DHT22;49442;45.640;13.812;2022-11-09T04:08:18;14.00;99.90
63313;DHT22;49442;45.640;13.812;2022-11-09T04:10:44;14.10;99.90
63313;DHT22;49442;45.640;13.812;2022-11-09T04:13:09;14.10;99.90
63313;DHT22;49442;45.640;13.812;2022-11-09T04:15:35;14.10;99.90
63313;DHT22;49442;45.640;13.812;2022-11-09T04:18:01;14.10;99.90
63313;DHT22;49442;45.640;13.812;2022-11-09T04:20:27;14.10;99.90
63313;DHT22;49442;45.640;13.812;2022-11-09T04:23:03;14.10;99.90
63313;DHT22;49442;45.640;13.812;2022-11-09T04:25:32;14.20;99.90
63313;DHT22;49442;45.640;13.812;2022-11-09T04:27:58;14.20;99.90
63313;DHT22;49442;45.640;13.812;2022-11-09T04:30:24;14.30;99.90
63313;DHT22;49442;45.640;13.812;2022-11-09T04:32:52;14.30;99.90
63313;DHT22;49442;45.640;13.812;2022-11-09T04:35:18;14.30;99.90
63313;DHT22;49442;45.640;13.812;2022-11-09T04:37:51;14.40;99.90
63313;DHT22;49442;45.640;13.812;2022-11-09T04:40:16;14.50;99.90
63313;DHT22;49442;45.640;13.812;2022-11-09T04:42:42;14.60;99.90
63313;DHT22;49442;45.640;13.812;2022-11-09T04:45:07;14.70;99.90
63313;DHT22;49442;45.640;13.812;2022-11-09T04:47:33;14.80;99.90
63313;DHT22;49442;45.640;13.812;2022-11-09T04:49:58;14.70;99.90
63313;DHT22;49442;45.640;13.812;2022-11-09T04:52:24;14.70;99.90
63313;DHT22;49442;45.640;13.812;2022-11-09T04:54:49;14.80;99.90
63313;DHT22;49442;45.640;13.812;2022-11-09T04:57:15;14.80;99.90
63313;DHT22;49442;45.640;13.812;2022-11-09T04:59:41;14.80;99.90
63313;DHT22;49442;45.640;13.812;2022-11-09T05:02:06;14.80;99.90
63313;DHT22;49442;45.640;13.812;2022-11-09T05:04:32;14.90;99.90
63313;DHT22;49442;45.640;13.812;2022-11-09T05:06:57;14.90;99.90
63313;DHT22;49442;45.640;13.812;2022-11-09T05:09:23;15.00;99.90
63313;DHT22;49442;45.640;13.812;2022-11-09T05:11:50;15.00;99.90
63313;DHT22;49442;45.640;13.812;2022-11-09T05:14:15;15.00;99.90
63313;DHT22;49442;45.640;13.812;2022-11-09T05:16:41;15.00;99.90
63313;DHT22;49442;45.640;13.812;2022-11-09T05:19:07;15.00;99.90
63313;DHT22;49442;45.640;13.812;2022-11-09T05:21:32;15.00;99.90
63313;DHT22;49442;45.640;13.812;2022-11-09T05:23:58;15.00;99.90
63313;DHT22;49442;45.640;13.812;2022-11-09T05:26:24;15.10;99.90
63313;DHT22;49442;45.640;13.812;2022-11-09T05:28:50;15.10;99.90
63313;DHT22;49442;45.640;13.812;2022-11-09T05:31:17;15.10;99.90
63313;DHT22;49442;45.640;13.812;2022-11-09T05:33:42;15.10;99.90
63313;DHT22;49442;45.640;13.812;2022-11-09T05:36:08;15.10;99.90
63313;DHT22;49442;45.640;13.812;2022-11-09T05:38:34;15.10;99.90
63313;DHT22;49442;45.640;13.812;2022-11-09T05:40:59;15.00;99.90
63313;DHT22;49442;45.640;13.812;2022-11-09T05:43:25;15.10;99.90
63313;DHT22;49442;45.640;13.812;2022-11-09T05:45:50;15.10;99.90
63313;DHT22;49442;45.640;13.812;2022-11-09T05:48:16;15.10;99.90
63313;DHT22;49442;45.640;13.812;2022-11-09T05:50:42;15.10;99.90
63313;DHT22;49442;45.640;13.812;2022-11-09T05:53:08;15.00;99.90
63313;DHT22;49442;45.640;13.812;2022-11-09T05:55:33;15.00;99.90
63313;DHT22;49442;45.640;13.812;2022-11-09T05:57:59;15.00;99.90
63313;DHT22;49442;45.640;13.812;2022-11-09T06:00:25;15.10;99.90
63313;DHT22;49442;45.640;13.812;2022-11-09T06:02:51;15.00;99.90
63313;DHT22;49442;45.640;13.812;2022-11-09T06:05:17;15.10;99.90
63313;DHT22;49442;45.640;13.812;2022-11-09T06:07:44;15.10;99.90
63313;DHT22;49442;45.640;13.812;2022-11-09T06:10:10;15.00;99.90
63313;DHT22;49442;45.640;13.812;2022-11-09T06:12:36;15.00;99.90
63313;DHT22;49442;45.640;13.812;2022-11-09T06:15:01;15.00;99.90
63313;DHT22;49442;45.640;13.812;2022-11-09T06:17:27;15.00;99.90
63313;DHT22;49442;45.640;13.812;2022-11-09T06:19:52;15.00;99.90
63313;DHT22;49442;45.640;13.812;2022-11-09T06:22:18;15.10;99.90
63313;DHT22;49442;45.640;13.812;2022-11-09T06:24:44;15.10;99.90
63313;DHT22;49442;45.640;13.812;2022-11-09T06:27:09;15.10;99.90
63313;DHT22;49442;45.640;13.812;2022-11-09T06:29:35;15.10;99.90
63313;DHT22;49442;45.640;13.812;2022-11-09T06:32:00;15.10;99.90
63313;DHT22;49442;45.640;13.812;2022-11-09T06:34:26;15.10;99.90
63313;DHT22;49442;45.640;13.812;2022-11-09T06:36:51;15.10;99.90
63313;DHT22;49442;45.640;13.812;2022-11-09T06:39:17;15.10;99.90
63313;DHT22;49442;45.640;13.812;2022-11-09T06:41:42;15.10;99.90
63313;DHT22;49442;45.640;13.812;2022-11-09T06:44:08;15.10;99.90
63313;DHT22;49442;45.640;13.812;2022-11-09T06:46:33;15.20;99.90
63313;DHT22;49442;45.640;13.812;2022-11-09T06:48:59;15.20;99.90
63313;DHT22;49442;45.640;13.812;2022-11-09T06:51:25;15.20;99.90
63313;DHT22;49442;45.640;13.812;2022-11-09T06:53:50;15.20;99.90
63313;DHT22;49442;45.640;13.812;2022-11-09T06:56:16;15.20;99.90
63313;DHT22;49442;45.640;13.812;2022-11-09T06:58:42;15.10;99.90
63313;DHT22;49442;45.640;13.812;2022-11-09T07:01:08;15.20;99.90
63313;DHT22;49442;45.640;13.812;2022-11-09T07:03:34;15.20;99.90
63313;DHT22;49442;45.640;13.812;2022-11-09T07:06:02;15.10;99.90
63313;DHT22;49442;45.640;13.812;2022-11-09T07:08:28;15.20;99.90
63313;DHT22;49442;45.640;13.812;2022-11-09T07:10:53;15.20;99.90
63313;DHT22;49442;45.640;13.812;2022-11-09T07:13:19;15.10;99.90
63313;DHT22;49442;45.640;13.812;2022-11-09T07:15:44;15.10;99.90
63313;DHT22;49442;45.640;13.812;2022-11-09T07:18:16;15.10;99.90
63313;DHT22;49442;45.640;13.812;2022-11-09T07:20:42;15.20;99.90
63313;DHT22;49442;45.640;13.812;2022-11-09T07:23:07;15.10;99.90
63313;DHT22;49442;45.640;13.812;2022-11-09T07:25:33;15.10;99.90
63313;DHT22;49442;45.640;13.812;2022-11-09T07:28:05;15.20;99.90
63313;DHT22;49442;45.640;13.812;2022-11-09T07:30:32;15.20;99.90
63313;DHT22;49442;45.640;13.812;2022-11-09T07:32:58;15.20;99.90
63313;DHT22;49442;45.640;13.812;2022-11-09T07:35:24;15.20;99.90
63313;DHT22;49442;45.640;13.812;2022-11-09T07:37:51;15.20;99.90
63313;DHT22;49442;45.640;13.812;2022-11-09T07:40:16;15.20;99.90
63313;DHT22;49442;45.640;13.812;2022-11-09T07:42:42;15.20;99.90
63313;DHT22;49442;45.640;13.812;2022-11-09T07:45:07;15.30;99.90
63313;DHT22;49442;45.640;13.812;2022-11-09T07:47:33;15.30;99.90
63313;DHT22;49442;45.640;13.812;2022-11-09T07:49:59;15.30;99.90
63313;DHT22;49442;45.640;13.812;2022-11-09T07:52:24;15.40;99.90
63313;DHT22;49442;45.640;13.812;2022-11-09T07:54:50;15.40;99.90
63313;DHT22;49442;45.640;13.812;2022-11-09T07:57:15;15.40;99.90
63313;DHT22;49442;45.640;13.812;2022-11-09T07:59:41;15.40;99.90
63313;DHT22;49442;45.640;13.812;2022-11-09T08:02:07;15.50;99.90
63313;DHT22;49442;45.640;13.812;2022-11-09T08:04:33;15.50;99.90
63313;DHT22;49442;45.640;13.812;2022-11-09T08:06:58;15.50;99.90
63313;DHT22;49442;45.640;13.812;2022-11-09T08:09:24;15.50;99.90
63313;DHT22;49442;45.640;13.812;2022-11-09T08:11:49;15.50;99.90
63313;DHT22;49442;45.640;13.812;2022-11-09T08:14:15;15.60;99.90
63313;DHT22;49442;45.640;13.812;2022-11-09T08:16:41;15.60;99.90
63313;DHT22;49442;45.640;13.812;2022-11-09T08:19:07;15.60;99.90
63313;DHT22;49442;45.640;13.812;2022-11-09T08:21:37;15.60;99.90
63313;DHT22;49442;45.640;13.812;2022-11-09T08:24:04;15.60;99.90
63313;DHT22;49442;45.640;13.812;2022-11-09T08:26:30;15.70;99.90
63313;DHT22;49442;45.640;13.812;2022-11-09T08:28:56;15.60;99.90
63313;DHT22;49442;45.640;13.812;2022-11-09T08:31:21;15.70;99.90
63313;DHT22;49442;45.640;13.812;2022-11-09T08:33:47;15.70;99.90
63313;DHT22;49442;45.640;13.812;2022-11-09T08:36:13;15.70;99.90
63313;DHT22;49442;45.640;13.812;2022-11-09T08:38:39;15.70;99.90
63313;DHT22;49442;45.640;13.812;2022-11-09T08:41:05;15.70;99.90
63313;DHT22;49442;45.640;13.812;2022-11-09T08:43:31;15.70;99.90
63313;DHT22;49442;45.640;13.812;2022-11-09T08:45:56;15.70;99.90
63313;DHT22;49442;45.640;13.812;2022-11-09T08:48:22;15.70;99.90
63313;DHT22;49442;45.640;13.812;2022-11-09T08:50:51;15.80;99.90
63313;DHT22;49442;45.640;13.812;2022-11-09T08:53:17;15.80;99.90
63313;DHT22;49442;45.640;13.812;2022-11-09T08:55:43;15.80;99.90
63313;DHT22;49442;45.640;13.812;2022-11-09T08:58:08;15.90;99.90
63313;DHT22;49442;45.640;13.812;2022-11-09T09:00:35;15.90;99.90
63313;DHT22;49442;45.640;13.812;2022-11-09T09:03:03;15.90;99.90
63313;DHT22;49442;45.640;13.812;2022-11-09T09:05:29;15.90;99.90
63313;DHT22;49442;45.640;13.812;2022-11-09T09:07:55;15.90;99.90
63313;DHT22;49442;45.640;13.812;2022-11-09T09:10:22;15.90;99.90
63313;DHT22;49442;45.640;13.812;2022-11-09T09:12:48;15.80;99.90
63313;DHT22;49442;45.640;13.812;2022-11-09T09:15:13;15.80;99.90
63313;DHT22;49442;45.640;13.812;2022-11-09T09:17:39;15.80;99.90
63313;DHT22;49442;45.640;13.812;2022-11-09T09:20:05;15.80;99.90
63313;DHT22;49442;45.640;13.812;2022-11-09T09:22:31;15.80;99.90
63313;DHT22;49442;45.640;13.812;2022-11-09T09:24:57;15.80;99.90
63313;DHT22;49442;45.640;13.812;2022-11-09T09:27:23;15.80;99.90
63313;DHT22;49442;45.640;13.812;2022-11-09T09:29:48;15.80;99.90
63313;DHT22;49442;45.640;13.812;2022-11-09T09:32:14;15.80;99.90
63313;DHT22;49442;45.640;13.812;2022-11-09T09:34:39;15.80;99.90
63313;DHT22;49442;45.640;13.812;2022-11-09T09:37:05;15.80;99.90
63313;DHT22;49442;45.640;13.812;2022-11-09T09:39:30;15.70;99.90
63313;DHT22;49442;45.640;13.812;2022-11-09T09:42:13;15.70;99.90
63313;DHT22;49442;45.640;13.812;2022-11-09T09:44:50;15.70;99.90
63313;DHT22;49442;45.640;13.812;2022-11-09T09:49:54;15.70;99.90
63313;DHT22;49442;45.640;13.812;2022-11-09T09:54:52;15.60;99.90
63313;DHT22;49442;45.640;13.812;2022-11-09T09:57:21;15.60;99.90
63313;DHT22;49442;45.640;13.812;2022-11-09T09:59:50;15.60;99.90
63313;DHT22;49442;45.640;13.812;2022-11-09T10:04:42;15.60;99.90
63313;DHT22;49442;45.640;13.812;2022-11-09T10:12:12;15.50;99.90
63313;DHT22;49442;45.640;13.812;2022-11-09T10:14:46;15.50;99.90
63313;DHT22;49442;45.640;13.812;2022-11-09T10:17:25;15.50;99.90
63313;DHT22;49442;45.640;13.812;2022-11-09T10:20:02;15.50;99.90
63313;DHT22;49442;45.640;13.812;2022-11-09T10:25:21;15.60;99.90
63313;DHT22;49442;45.640;13.812;2022-11-09T10:27:51;15.50;99.90
63313;DHT22;49442;45.640;13.812;2022-11-09T10:30:19;15.60;99.90
63313;DHT22;49442;45.640;13.812;2022-11-09T10:33:27;15.50;99.90
63313;DHT22;49442;45.640;13.812;2022-11-09T10:35:37;15.60;99.90
63313;DHT22;49442;45.640;13.812;2022-11-09T10:38:12;15.50;99.90
63313;DHT22;49442;45.640;13.812;2022-11-09T10:40:52;15.60;99.90
63313;DHT22;49442;45.640;13.812;2022-11-09T10:43:18;15.60;99.90
63313;DHT22;49442;45.640;13.812;2022-11-09T10:45:44;15.60;99.90
63313;DHT22;49442;45.640;13.812;2022-11-09T10:48:11;15.50;99.90
63313;DHT22;49442;45.640;13.812;2022-11-09T10:50:38;15.50;99.90
63313;DHT22;49442;45.640;13.812;2022-11-09T10:53:14;15.50;99.90
63313;DHT22;49442;45.640;13.812;2022-11-09T10:55:57;15.60;99.90
63313;DHT22;49442;45.640;13.812;2022-11-09T10:58:27;15.60;99.90
63313;DHT22;49442;45.640;13.812;2022-11-09T11:01:02;15.50;99.90
63313;DHT22;49442;45.640;13.812;2022-11-09T11:03:29;15.50;99.90
63313;DHT22;49442;45.640;13.812;2022-11-09T11:05:57;15.50;99.90
63313;DHT22;49442;45.640;13.812;2022-11-09T11:08:24;15.50;99.90
63313;DHT22;49442;45.640;13.812;2022-11-09T11:10:50;15.50;99.90
63313;DHT22;49442;45.640;13.812;2022-11-09T11:13:20;15.50;99.90
63313;DHT22;49442;45.640;13.812;2022-11-09T11:15:46;15.50;99.90
63313;DHT22;49442;45.640;13.812;2022-11-09T11:18:14;15.50;99.90
63313;DHT22;49442;45.640;13.812;2022-11-09T11:20:40;15.50;99.90
63313;DHT22;49442;45.640;13.812;2022-11-09T11:23:19;15.50;99.90
63313;DHT22;49442;45.640;13.812;2022-11-09T11:28:25;15.50;99.90
63313;DHT22;49442;45.640;13.812;2022-11-09T11:30:53;15.60;99.90
63313;DHT22;49442;45.640;13.812;2022-11-09T11:33:19;15.60;99.90
63313;DHT22;49442;45.640;13.812;2022-11-09T11:38:55;15.70;99.90
63313;DHT22;49442;45.640;13.812;2022-11-09T11:46:45;15.70;99.90
63313;DHT22;49442;45.640;13.812;2022-11-09T11:57:36;15.70;99.90
63313;DHT22;49442;45.640;13.812;2022-11-09T12:00:08;15.70;99.90
63313;DHT22;49442;45.640;13.812;2022-11-09T12:10:33;15.70;99.90
63313;DHT22;49442;45.640;13.812;2022-11-09T12:33:20;15.70;99.90
63313;DHT22;49442;45.640;13.812;2022-11-09T12:35:49;15.80;99.90
63313;DHT22;49442;45.640;13.812;2022-11-09T12:40:52;15.80;99.90
63313;DHT22;49442;45.640;13.812;2022-11-09T12:43:24;15.80;99.90
63313;DHT22;49442;45.640;13.812;2022-11-09T12:45:51;15.80;99.90
63313;DHT22;49442;45.640;13.812;2022-11-09T12:50:42;15.80;99.90
63313;DHT22;49442;45.640;13.812;2022-11-09T12:53:08;15.80;99.90
63313;DHT22;49442;45.640;13.812;2022-11-09T12:55:36;15.80;99.90
63313;DHT22;49442;45.640;13.812;2022-11-09T12:58:04;15.80;99.90
63313;DHT22;49442;45.640;13.812;2022-11-09T13:02:59;15.70;99.90
63313;DHT22;49442;45.640;13.812;2022-11-09T13:05:29;15.70;99.90
63313;DHT22;49442;45.640;13.812;2022-11-09T13:07:58;15.70;99.90
63313;DHT22;49442;45.640;13.812;2022-11-09T13:15:37;15.70;99.90
63313;DHT22;49442;45.640;13.812;2022-11-09T13:20:47;15.70;99.90
63313;DHT22;49442;45.640;13.812;2022-11-09T13:23:26;15.70;99.90
63313;DHT22;49442;45.640;13.812;2022-11-09T13:25:52;15.70;99.90
63313;DHT22;49442;45.640;13.812;2022-11-09T13:30:53;15.70;99.90
63313;DHT22;49442;45.640;13.812;2022-11-09T13:33:22;15.70;99.90
63313;DHT22;49442;45.640;13.812;2022-11-09T13:38:16;15.70;99.90
63313;DHT22;49442;45.640;13.812;2022-11-09T13:40:43;15.70;99.90
63313;DHT22;49442;45.640;13.812;2022-11-09T13:45:44;15.70;99.90
63313;DHT22;49442;45.640;13.812;2022-11-09T13:50:55;15.70;99.90
63313;DHT22;49442;45.640;13.812;2022-11-09T13:53:29;15.70;99.90
63313;DHT22;49442;45.640;13.812;2022-11-09T13:55:55;15.70;99.90
63313;DHT22;49442;45.640;13.812;2022-11-09T13:58:33;15.60;99.90
63313;DHT22;49442;45.640;13.812;2022-11-09T14:00:59;15.60;99.90
63313;DHT22;49442;45.640;13.812;2022-11-09T14:03:26;15.60;99.90
63313;DHT22;49442;45.640;13.812;2022-11-09T14:05:59;15.60;99.90
63313;DHT22;49442;45.640;13.812;2022-11-09T14:08:35;15.60;99.90
63313;DHT22;49442;45.640;13.812;2022-11-09T14:23:48;15.60;99.90
63313;DHT22;49442;45.640;13.812;2022-11-09T14:26:20;15.50;99.90
63313;DHT22;49442;45.640;13.812;2022-11-09T14:28:46;15.50;99.90
63313;DHT22;49442;45.640;13.812;2022-11-09T14:31:20;15.50;99.90
63313;DHT22;49442;45.640;13.812;2022-11-09T14:33:56;15.50;99.90
63313;DHT22;49442;45.640;13.812;2022-11-09T14:36:21;15.50;99.90
63313;DHT22;49442;45.640;13.812;2022-11-09T14:38:47;15.50;99.90
63313;DHT22;49442;45.640;13.812;2022-11-09T14:41:22;15.50;99.90
63313;DHT22;49442;45.640;13.812;2022-11-09T14:43:50;15.40;99.90
63313;DHT22;49442;45.640;13.812;2022-11-09T14:46:17;15.40;99.90
63313;DHT22;49442;45.640;13.812;2022-11-09T14:49:17;15.40;99.90
63313;DHT22;49442;45.640;13.812;2022-11-09T14:51:36;15.40;99.90
63313;DHT22;49442;45.640;13.812;2022-11-09T14:54:04;15.40;99.90
63313;DHT22;49442;45.640;13.812;2022-11-09T14:56:31;15.40;99.90
63313;DHT22;49442;45.640;13.812;2022-11-09T14:58:58;15.40;99.90
63313;DHT22;49442;45.640;13.812;2022-11-09T15:01:26;15.40;99.90
63313;DHT22;49442;45.640;13.812;2022-11-09T15:04:05;15.30;99.90
63313;DHT22;49442;45.640;13.812;2022-11-09T15:06:31;15.30;99.90
63313;DHT22;49442;45.640;13.812;2022-11-09T15:08:59;15.30;99.90
63313;DHT22;49442;45.640;13.812;2022-11-09T15:11:31;15.30;99.90
63313;DHT22;49442;45.640;13.812;2022-11-09T15:13:58;15.30;99.90
63313;DHT22;49442;45.640;13.812;2022-11-09T15:16:28;15.30;99.90
63313;DHT22;49442;45.640;13.812;2022-11-09T15:18:55;15.30;99.90
63313;DHT22;49442;45.640;13.812;2022-11-09T15:26:34;15.20;99.90
63313;DHT22;49442;45.640;13.812;2022-11-09T15:29:00;15.20;99.90
63313;DHT22;49442;45.640;13.812;2022-11-09T15:31:25;15.20;99.90
63313;DHT22;49442;45.640;13.812;2022-11-09T15:33:53;15.20;99.90
63313;DHT22;49442;45.640;13.812;2022-11-09T15:38:54;15.10;99.90
63313;DHT22;49442;45.640;13.812;2022-11-09T15:41:21;15.10;99.90
63313;DHT22;49442;45.640;13.812;2022-11-09T15:43:46;15.10;99.90
63313;DHT22;49442;45.640;13.812;2022-11-09T15:46:16;15.00;99.90
63313;DHT22;49442;45.640;13.812;2022-11-09T15:48:43;15.00;99.90
63313;DHT22;49442;45.640;13.812;2022-11-09T15:51:11;15.00;99.90
63313;DHT22;49442;45.640;13.812;2022-11-09T15:53:37;15.00;99.90
63313;DHT22;49442;45.640;13.812;2022-11-09T15:56:03;14.90;99.90
63313;DHT22;49442;45.640;13.812;2022-11-09T15:58:29;14.90;99.90
63313;DHT22;49442;45.640;13.812;2022-11-09T16:00:54;14.90;99.90
63313;DHT22;49442;45.640;13.812;2022-11-09T16:03:20;14.90;99.90
63313;DHT22;49442;45.640;13.812;2022-11-09T16:05:46;14.90;99.90
63313;DHT22;49442;45.640;13.812;2022-11-09T16:08:11;14.90;99.90
63313;DHT22;49442;45.640;13.812;2022-11-09T16:10:37;14.90;99.90
63313;DHT22;49442;45.640;13.812;2022-11-09T16:13:07;14.90;99.90
63313;DHT22;49442;45.640;13.812;2022-11-09T16:15:33;14.90;99.90
63313;DHT22;49442;45.640;13.812;2022-11-09T16:17:59;14.90;99.90
63313;DHT22;49442;45.640;13.812;2022-11-09T16:20:24;14.80;99.90
63313;DHT22;49442;45.640;13.812;2022-11-09T16:22:50;14.90;99.90
63313;DHT22;49442;45.640;13.812;2022-11-09T16:25:15;14.80;99.90
63313;DHT22;49442;45.640;13.812;2022-11-09T16:27:41;14.80;99.90
63313;DHT22;49442;45.640;13.812;2022-11-09T16:30:10;14.80;99.90
63313;DHT22;49442;45.640;13.812;2022-11-09T16:32:36;14.80;99.90
63313;DHT22;49442;45.640;13.812;2022-11-09T16:35:02;14.80;99.90
63313;DHT22;49442;45.640;13.812;2022-11-09T16:37:28;14.70;99.90
63313;DHT22;49442;45.640;13.812;2022-11-09T16:39:58;14.70;99.90
63313;DHT22;49442;45.640;13.812;2022-11-09T16:42:25;14.70;99.90
63313;DHT22;49442;45.640;13.812;2022-11-09T16:44:50;14.70;99.90
63313;DHT22;49442;45.640;13.812;2022-11-09T16:47:16;14.70;99.90
63313;DHT22;49442;45.640;13.812;2022-11-09T16:49:43;14.70;99.90
63313;DHT22;49442;45.640;13.812;2022-11-09T16:52:08;14.70;99.90
63313;DHT22;49442;45.640;13.812;2022-11-09T16:54:34;14.70;99.90
63313;DHT22;49442;45.640;13.812;2022-11-09T16:57:00;14.70;99.90
63313;DHT22;49442;45.640;13.812;2022-11-09T16:59:25;14.70;99.90
63313;DHT22;49442;45.640;13.812;2022-11-09T17:01:55;14.70;99.90
63313;DHT22;49442;45.640;13.812;2022-11-09T17:04:21;14.70;99.90
63313;DHT22;49442;45.640;13.812;2022-11-09T17:06:47;14.70;99.90